Terminal Aerodrome Forecast
Issued by NWS

Home | Current Version | Previous Version | Text Only | Print | Product List | Glossary On
Versions: 1 2 3 4 5 6 7 8 9 10 11 12 13 14 15 16 17 18 19 20
000
FTUS41 KBGM 021737
TAFELM
TAF
KELM 021737Z 0218/0318 33005KT P6SM BKN050
     FM022000 35006KT P6SM SCT060
     FM022300 02003KT P6SM BKN250
     FM030800 00000KT 4SM BR SCT080
      TEMPO 0309/0313 2SM BR
     FM031400 VRB03KT P6SM SKC=

USA.gov is the U.S. government's official web portal to all federal, state and local government web resources and services.